Time;durP1;ratioP1;P1;durP2;ratioP2;P2;SDS_P1;SDS_P2;PMS_P1;PMS_P2;Temp;Humidity;BMP_temperature;BMP_pressure;BME280_temperature;BME280_humidity;BME280_pressure;Samples;Min_cycle;Max_cycle;Signal;HPM_P1;HPM_P2
2023/07/22 00:00:55;;;;;;;1.13;0.50;;;13.30;99.90;;;;;;5002700;28;20500;-66
2023/07/22 00:03:22;;;;;;;1.50;0.88;;;13.30;99.90;;;;;;5000374;28;20152;-66
2023/07/22 00:05:48;;;;;;;1.25;0.35;;;13.30;99.90;;;;;;5002535;28;20502;-66
2023/07/22 00:08:14;;;;;;;1.02;0.68;;;13.30;99.90;;;;;;5001042;28;20038;-67
2023/07/22 00:10:43;;;;;;;1.52;0.73;;;13.20;99.90;;;;;;5001505;28;20049;-67
2023/07/22 00:13:09;;;;;;;1.05;0.30;;;13.20;99.90;;;;;;4998011;28;20066;-67
2023/07/22 00:15:34;;;;;;;1.92;0.70;;;13.20;99.90;;;;;;4996869;28;20442;-66
2023/07/22 00:18:00;;;;;;;1.13;0.40;;;13.10;99.90;;;;;;5002128;28;20033;-66
2023/07/22 00:20:26;;;;;;;0.63;0.40;;;13.10;99.90;;;;;;5004291;28;20046;-66
2023/07/22 00:22:52;;;;;;;1.15;0.63;;;13.00;99.90;;;;;;4998234;28;20551;-67
2023/07/22 00:25:18;;;;;;;1.40;0.50;;;13.00;99.90;;;;;;4993940;28;20057;-67
2023/07/22 00:27:44;;;;;;;1.52;0.57;;;12.90;99.90;;;;;;5002467;28;20038;-66
2023/07/22 00:30:10;;;;;;;2.08;0.70;;;12.90;99.90;;;;;;5004073;28;20042;-66
2023/07/22 00:32:40;;;;;;;0.95;0.50;;;12.80;99.90;;;;;;5007478;28;20426;-67
2023/07/22 00:35:07;;;;;;;3.15;0.75;;;12.80;99.90;;;;;;4995832;28;20041;-66
2023/07/22 00:37:33;;;;;;;1.50;0.68;;;12.70;99.90;;;;;;5001819;28;20104;-66
2023/07/22 00:39:58;;;;;;;0.90;0.22;;;12.70;99.90;;;;;;5002358;28;20030;-66
2023/07/22 00:42:25;;;;;;;1.58;0.63;;;12.60;99.90;;;;;;5003124;28;20046;-66
2023/07/22 00:44:50;;;;;;;1.08;0.40;;;12.60;99.90;;;;;;5004327;28;20128;-66
2023/07/22 00:47:17;;;;;;;0.80;0.20;;;12.60;99.90;;;;;;5002513;28;20413;-66
2023/07/22 00:49:44;;;;;;;1.40;0.82;;;12.50;99.90;;;;;;5002245;28;20050;-66
2023/07/22 00:52:09;;;;;;;1.30;0.65;;;12.50;99.90;;;;;;4999197;28;20054;-66
2023/07/22 00:54:35;;;;;;;1.10;0.60;;;12.50;99.90;;;;;;4999266;28;20547;-66
2023/07/22 00:57:01;;;;;;;1.30;0.60;;;12.40;99.90;;;;;;5000042;28;20048;-66
2023/07/22 00:59:28;;;;;;;1.20;0.50;;;12.40;99.90;;;;;;4999456;28;20108;-66
2023/07/22 01:01:53;;;;;;;3.15;0.57;;;12.30;99.90;;;;;;5004069;28;20042;-67
2023/07/22 01:04:23;;;;;;;1.05;0.52;;;12.30;99.90;;;;;;4997952;28;20054;-66
2023/07/22 01:06:52;;;;;;;2.10;0.55;;;12.30;99.90;;;;;;5002107;28;20467;-66
2023/07/22 01:09:18;;;;;;;2.53;0.98;;;12.30;99.90;;;;;;4998976;28;20093;-66
2023/07/22 01:11:44;;;;;;;2.83;0.98;;;12.30;99.90;;;;;;4996520;28;20081;-66
2023/07/22 01:14:10;;;;;;;1.05;0.43;;;12.30;99.90;;;;;;4996643;28;20050;-66
2023/07/22 01:16:36;;;;;;;2.42;0.80;;;12.30;99.90;;;;;;5003730;28;20042;-67
2023/07/22 01:19:04;;;;;;;0.93;0.40;;;12.30;99.90;;;;;;5005184;28;20050;-66
2023/07/22 01:21:32;;;;;;;1.73;0.70;;;12.30;99.90;;;;;;5001706;28;20192;-66
2023/07/22 01:23:58;;;;;;;1.63;0.43;;;12.30;99.90;;;;;;4996489;28;20039;-67
2023/07/22 01:26:24;;;;;;;0.93;0.57;;;12.30;99.90;;;;;;5002976;28;20069;-67
2023/07/22 01:28:49;;;;;;;2.65;0.80;;;12.40;99.90;;;;;;4999014;28;20077;-67
2023/07/22 01:31:15;;;;;;;2.15;0.60;;;12.40;99.90;;;;;;5001226;28;20136;-66
2023/07/22 01:33:41;;;;;;;4.00;0.98;;;12.30;99.90;;;;;;5001872;28;20042;-67
2023/07/22 01:36:07;;;;;;;1.60;0.70;;;12.30;99.90;;;;;;5003774;28;20128;-66
2023/07/22 01:38:33;;;;;;;2.28;0.60;;;12.20;99.90;;;;;;5000473;28;20074;-67
2023/07/22 01:40:59;;;;;;;1.52;0.80;;;12.30;99.90;;;;;;4997699;28;20472;-67
2023/07/22 01:43:25;;;;;;;0.93;0.52;;;12.20;99.90;;;;;;4999653;28;20034;-66
2023/07/22 01:45:51;;;;;;;1.20;0.57;;;12.20;99.90;;;;;;5000065;28;20422;-67
2023/07/22 01:48:17;;;;;;;1.98;1.13;;;12.20;99.90;;;;;;5000581;28;20034;-66
2023/07/22 01:50:43;;;;;;;1.85;0.82;;;12.10;99.90;;;;;;5009080;28;20403;-66
2023/07/22 01:53:08;;;;;;;1.30;0.65;;;12.10;99.90;;;;;;5006186;28;20077;-66
2023/07/22 01:55:34;;;;;;;0.95;0.55;;;12.10;99.90;;;;;;5000505;28;20410;-67
2023/07/22 01:58:01;;;;;;;1.50;0.45;;;12.10;99.90;;;;;;4987392;28;20046;-67
2023/07/22 02:00:26;;;;;;;1.08;0.50;;;12.10;99.90;;;;;;5008641;28;20125;-67
2023/07/22 02:02:52;;;;;;;1.33;0.38;;;12.00;99.90;;;;;;5004569;28;20128;-66
2023/07/22 02:05:18;;;;;;;1.10;0.40;;;12.00;99.90;;;;;;4998850;28;20034;-66
2023/07/22 02:07:44;;;;;;;0.85;0.40;;;12.00;99.90;;;;;;5002508;28;20033;-67
2023/07/22 02:10:09;;;;;;;1.55;0.60;;;11.90;99.90;;;;;;5009318;28;20050;-66
2023/07/22 02:12:35;;;;;;;2.15;0.77;;;11.90;99.90;;;;;;5006644;28;20046;-66
2023/07/22 02:15:02;;;;;;;1.27;0.50;;;11.80;99.90;;;;;;5018680;28;20050;-66
2023/07/22 02:17:28;;;;;;;1.50;0.57;;;11.80;99.90;;;;;;5001130;28;20046;-67
2023/07/22 02:19:54;;;;;;;1.55;0.52;;;11.80;99.90;;;;;;4995942;28;20584;-66
2023/07/22 02:22:20;;;;;;;1.83;0.75;;;11.80;99.90;;;;;;5003573;28;20050;-66
2023/07/22 02:24:46;;;;;;;2.03;0.80;;;11.80;99.90;;;;;;5006476;28;20045;-66
2023/07/22 02:27:11;;;;;;;2.10;0.90;;;11.80;99.90;;;;;;5004022;28;20454;-66
2023/07/22 02:29:37;;;;;;;2.92;1.00;;;11.80;99.90;;;;;;5006147;28;20041;-66
2023/07/22 02:32:03;;;;;;;1.17;0.30;;;11.80;99.90;;;;;;5003959;28;20099;-67
2023/07/22 02:34:29;;;;;;;1.15;0.70;;;11.80;99.90;;;;;;5001344;28;20671;-66
2023/07/22 02:36:54;;;;;;;1.77;0.77;;;11.80;99.90;;;;;;4999353;28;20050;-66
2023/07/22 02:39:20;;;;;;;1.95;1.15;;;11.80;99.90;;;;;;4998774;28;20038;-65
2023/07/22 02:41:47;;;;;;;1.35;0.52;;;11.80;99.90;;;;;;5000187;28;20545;-66
2023/07/22 02:44:13;;;;;;;0.93;0.50;;;11.80;99.90;;;;;;5006223;28;20125;-66
2023/07/22 02:46:38;;;;;;;2.03;0.60;;;11.80;99.90;;;;;;5003701;28;20121;-66
2023/07/22 02:49:05;;;;;;;0.68;0.30;;;11.80;99.90;;;;;;5002356;28;20060;-66
2023/07/22 02:51:30;;;;;;;2.17;0.90;;;11.90;99.90;;;;;;5005633;28;20088;-66
2023/07/22 02:53:56;;;;;;;1.55;0.80;;;11.90;99.90;;;;;;5008858;28;20038;-66
2023/07/22 02:56:23;;;;;;;3.58;0.75;;;11.90;99.90;;;;;;4998260;28;20030;-66
2023/07/22 02:58:49;;;;;;;1.30;0.40;;;11.90;99.90;;;;;;5003393;28;20057;-66
2023/07/22 03:01:15;;;;;;;2.08;0.45;;;11.90;99.90;;;;;;5001733;28;20042;-66
2023/07/22 03:03:41;;;;;;;1.10;0.50;;;11.90;99.90;;;;;;5004102;28;20076;-66
2023/07/22 03:06:07;;;;;;;1.40;0.40;;;11.90;99.90;;;;;;4996741;28;20038;-66
2023/07/22 03:08:33;;;;;;;1.25;0.50;;;11.80;99.90;;;;;;5006978;28;20130;-66
2023/07/22 03:10:59;;;;;;;0.98;0.35;;;11.90;99.90;;;;;;5005421;28;20042;-66
2023/07/22 03:13:29;;;;;;;1.13;0.65;;;11.90;99.90;;;;;;4999499;28;20419;-66
2023/07/22 03:15:55;;;;;;;1.42;0.57;;;11.90;99.90;;;;;;4996829;28;20410;-66
2023/07/22 03:18:21;;;;;;;1.92;0.68;;;11.90;99.90;;;;;;5004795;28;20034;-65
2023/07/22 03:20:47;;;;;;;3.92;0.70;;;12.00;99.90;;;;;;5003037;28;20040;-66
2023/07/22 03:23:12;;;;;;;1.73;0.57;;;12.00;99.90;;;;;;5002375;28;20105;-66
2023/07/22 03:25:38;;;;;;;1.35;0.70;;;12.00;99.90;;;;;;4992075;28;20046;-66
2023/07/22 03:28:06;;;;;;;1.60;0.73;;;12.10;99.90;;;;;;5006943;28;20038;-66
2023/07/22 03:30:33;;;;;;;2.33;0.73;;;12.10;99.90;;;;;;4999644;28;20480;-66
2023/07/22 03:33:00;;;;;;;1.88;0.70;;;12.10;99.90;;;;;;5005870;28;20092;-66
2023/07/22 03:35:26;;;;;;;1.95;1.05;;;12.20;99.90;;;;;;5001054;28;20042;-66
2023/07/22 03:37:52;;;;;;;1.85;0.73;;;12.20;99.90;;;;;;5003903;28;20370;-66
2023/07/22 03:40:19;;;;;;;3.45;1.13;;;12.20;99.90;;;;;;5002192;28;20677;-67
2023/07/22 03:42:49;;;;;;;1.50;0.65;;;12.20;99.90;;;;;;5017162;28;20041;-66
2023/07/22 03:45:15;;;;;;;1.52;0.85;;;12.30;99.90;;;;;;5002749;28;20495;-66
2023/07/22 03:47:41;;;;;;;1.20;0.68;;;12.30;99.90;;;;;;5004328;28;20073;-66
2023/07/22 03:50:07;;;;;;;3.40;0.88;;;12.30;99.90;;;;;;5000640;28;20078;-66
2023/07/22 03:52:33;;;;;;;1.55;0.70;;;12.40;99.90;;;;;;5000682;28;20046;-65
2023/07/22 03:54:59;;;;;;;2.88;0.80;;;12.40;99.90;;;;;;5004059;28;20503;-66
2023/07/22 03:57:28;;;;;;;1.60;0.70;;;12.50;99.90;;;;;;5004373;28;20977;-66
2023/07/22 03:59:55;;;;;;;1.40;0.68;;;12.50;99.90;;;;;;5003250;28;20038;-66
2023/07/22 04:02:21;;;;;;;2.90;0.90;;;12.50;99.90;;;;;;4997664;28;20069;-66
2023/07/22 04:04:46;;;;;;;1.27;0.68;;;12.60;99.90;;;;;;5001503;28;20046;-65
2023/07/22 04:07:12;;;;;;;1.70;0.70;;;12.60;99.90;;;;;;5000497;28;20505;-66
2023/07/22 04:09:38;;;;;;;1.35;0.60;;;12.60;99.90;;;;;;5003428;28;20076;-66
2023/07/22 04:12:04;;;;;;;2.63;0.70;;;12.70;99.90;;;;;;4996711;28;20037;-66
2023/07/22 04:14:30;;;;;;;1.02;0.40;;;12.70;99.90;;;;;;5000534;28;20100;-66
2023/07/22 04:16:56;;;;;;;1.70;0.98;;;12.80;99.90;;;;;;5000855;28;20058;-66
2023/07/22 04:19:22;;;;;;;0.90;0.50;;;12.80;99.90;;;;;;5003766;28;20092;-65
2023/07/22 04:21:47;;;;;;;1.25;0.45;;;12.90;99.90;;;;;;5002853;28;20355;-65
2023/07/22 04:24:13;;;;;;;1.63;0.75;;;12.90;99.90;;;;;;5002442;28;20029;-66
2023/07/22 04:26:40;;;;;;;3.28;1.05;;;12.90;99.90;;;;;;4999569;28;20596;-66
2023/07/22 04:29:05;;;;;;;2.35;0.90;;;12.90;99.90;;;;;;5003145;28;20042;-66
2023/07/22 04:31:33;;;;;;;1.75;1.08;;;12.90;99.90;;;;;;4997009;28;20061;-66
2023/07/22 04:33:58;;;;;;;1.02;0.45;;;13.00;99.90;;;;;;5001027;28;20516;-66
2023/07/22 04:36:24;;;;;;;2.58;1.25;;;13.00;99.90;;;;;;5003806;28;20038;-67
2023/07/22 04:38:50;;;;;;;1.05;0.40;;;13.00;99.90;;;;;;4989123;28;20050;-66
2023/07/22 04:41:15;;;;;;;0.85;0.50;;;13.10;99.90;;;;;;4995067;28;20118;-66
2023/07/22 04:43:41;;;;;;;2.25;1.05;;;13.10;99.90;;;;;;5004636;28;20042;-66
2023/07/22 04:46:08;;;;;;;1.30;0.65;;;13.20;99.90;;;;;;5001019;28;20050;-66
2023/07/22 04:48:34;;;;;;;1.80;0.70;;;13.20;99.90;;;;;;5006456;28;20085;-66
2023/07/22 04:51:00;;;;;;;1.75;0.57;;;13.20;99.90;;;;;;5007534;28;20040;-66
2023/07/22 04:53:26;;;;;;;4.40;0.88;;;13.30;99.90;;;;;;5005791;28;20034;-66
2023/07/22 04:55:51;;;;;;;1.50;0.70;;;13.30;99.90;;;;;;5001893;28;20057;-66
2023/07/22 04:58:17;;;;;;;1.30;0.60;;;13.30;99.90;;;;;;5005585;28;20100;-66
2023/07/22 05:00:43;;;;;;;1.73;1.02;;;13.30;99.90;;;;;;5002349;28;20093;-66
2023/07/22 05:03:09;;;;;;;1.05;0.68;;;13.30;99.90;;;;;;5000919;28;20054;-66
2023/07/22 05:05:36;;;;;;;0.95;0.68;;;13.30;99.90;;;;;;5000821;28;20459;-66
2023/07/22 05:08:01;;;;;;;1.77;0.63;;;13.40;99.90;;;;;;4999131;28;20037;-66
2023/07/22 05:10:28;;;;;;;2.78;1.50;;;13.30;99.90;;;;;;4995612;28;20060;-67
2023/07/22 05:12:54;;;;;;;1.92;0.60;;;13.30;99.90;;;;;;4998401;28;20375;-67
2023/07/22 05:15:20;;;;;;;1.30;0.65;;;13.40;99.90;;;;;;5001578;28;20136;-67
2023/07/22 05:17:46;;;;;;;2.22;0.93;;;13.40;99.90;;;;;;5003170;28;20116;-67
2023/07/22 05:20:14;;;;;;;2.53;0.93;;;13.40;99.90;;;;;;5001773;28;20073;-67
2023/07/22 05:22:40;;;;;;;1.42;0.77;;;13.50;99.90;;;;;;4999552;28;20042;-67
2023/07/22 05:25:06;;;;;;;0.60;0.32;;;13.50;99.90;;;;;;5003301;28;20501;-67
2023/07/22 05:27:33;;;;;;;1.50;0.57;;;13.50;99.90;;;;;;5001345;28;20093;-67
2023/07/22 05:29:58;;;;;;;1.40;0.73;;;13.60;99.90;;;;;;4998416;28;20042;-67
2023/07/22 05:32:24;;;;;;;1.92;0.60;;;13.60;99.90;;;;;;4999008;28;20069;-67
2023/07/22 05:34:50;;;;;;;1.30;0.65;;;13.60;99.90;;;;;;4999494;28;20061;-67
2023/07/22 05:37:15;;;;;;;2.63;1.23;;;13.60;99.90;;;;;;4995327;28;20129;-67
2023/07/22 05:39:41;;;;;;;0.90;0.70;;;13.60;99.90;;;;;;5000137;28;20034;-68
2023/07/22 05:42:07;;;;;;;2.08;0.80;;;13.60;99.90;;;;;;4995550;28;20476;-67
2023/07/22 05:44:32;;;;;;;2.72;1.00;;;13.70;99.90;;;;;;5003511;28;20045;-67
2023/07/22 05:46:58;;;;;;;0.70;0.55;;;13.70;99.90;;;;;;5011522;28;20057;-68
2023/07/22 05:49:24;;;;;;;2.05;0.65;;;13.70;99.90;;;;;;4998234;28;20518;-67
2023/07/22 05:51:50;;;;;;;2.33;0.82;;;13.70;99.90;;;;;;5001918;28;20061;-68
2023/07/22 05:54:16;;;;;;;1.20;0.77;;;13.70;99.90;;;;;;5004550;28;20350;-67
2023/07/22 05:56:42;;;;;;;3.08;0.90;;;13.80;99.90;;;;;;5000601;28;20041;-67
2023/07/22 05:59:08;;;;;;;3.72;0.77;;;13.80;99.90;;;;;;5004251;28;20030;-68
2023/07/22 06:01:34;;;;;;;1.98;0.77;;;13.80;99.90;;;;;;5006671;28;20437;-67
2023/07/22 06:04:00;;;;;;;2.28;0.88;;;13.90;99.90;;;;;;5004324;28;20073;-67
2023/07/22 06:06:26;;;;;;;1.30;0.90;;;13.90;99.90;;;;;;5003909;28;20039;-68
2023/07/22 06:08:52;;;;;;;2.72;0.93;;;14.00;99.90;;;;;;5009538;28;20037;-67
2023/07/22 06:11:18;;;;;;;2.30;0.80;;;14.10;99.90;;;;;;5004719;28;20042;-67
2023/07/22 06:13:43;;;;;;;1.90;0.70;;;14.10;99.90;;;;;;5001504;28;20188;-67
2023/07/22 06:16:09;;;;;;;3.17;1.02;;;14.20;99.90;;;;;;4998009;28;20061;-67
2023/07/22 06:18:35;;;;;;;1.80;0.73;;;14.30;99.90;;;;;;5006893;28;20053;-67
2023/07/22 06:21:01;;;;;;;1.08;0.68;;;14.40;99.90;;;;;;5008195;28;20034;-68
2023/07/22 06:23:26;;;;;;;1.13;0.68;;;14.40;99.90;;;;;;5001159;28;20045;-67
2023/07/22 06:25:52;;;;;;;2.65;1.17;;;14.60;99.90;;;;;;4997634;28;20070;-68
2023/07/22 06:28:18;;;;;;;1.55;0.75;;;14.60;99.90;;;;;;5002613;28;20042;-67
2023/07/22 06:30:43;;;;;;;1.27;0.65;;;14.60;99.90;;;;;;5004420;28;20046;-68
2023/07/22 06:33:09;;;;;;;1.67;0.65;;;14.70;99.90;;;;;;5007894;28;20041;-67
2023/07/22 06:35:35;;;;;;;2.13;1.17;;;14.70;99.90;;;;;;5003017;28;20157;-68
2023/07/22 06:38:01;;;;;;;1.70;0.98;;;14.80;99.90;;;;;;4998733;28;20523;-67
2023/07/22 06:40:27;;;;;;;1.80;1.13;;;14.90;99.90;;;;;;5005184;28;20033;-67
2023/07/22 06:42:52;;;;;;;2.45;1.48;;;15.00;99.90;;;;;;5002142;28;20079;-67
2023/07/22 06:45:18;;;;;;;1.88;0.90;;;15.10;99.90;;;;;;5008766;28;20364;-67
2023/07/22 06:47:45;;;;;;;1.40;0.70;;;15.20;99.90;;;;;;5003283;28;20111;-67
2023/07/22 06:50:10;;;;;;;2.08;1.10;;;15.30;99.90;;;;;;5006753;28;20394;-67
2023/07/22 06:52:36;;;;;;;2.63;1.15;;;15.30;99.90;;;;;;5003381;28;20050;-67
2023/07/22 06:55:02;;;;;;;2.30;1.13;;;15.50;99.90;;;;;;4999267;28;20522;-67
2023/07/22 06:57:29;;;;;;;1.92;1.00;;;15.60;99.90;;;;;;5006252;28;20125;-67
2023/07/22 06:59:55;;;;;;;1.38;0.75;;;15.60;99.90;;;;;;5002866;28;20067;-67
2023/07/22 07:02:21;;;;;;;2.13;0.63;;;15.70;99.90;;;;;;5006889;28;20050;-67
2023/07/22 07:04:46;;;;;;;2.38;1.05;;;15.80;99.90;;;;;;5005618;28;20042;-67
2023/07/22 07:07:13;;;;;;;2.35;1.08;;;15.80;99.90;;;;;;5008862;28;20029;-67
2023/07/22 07:09:40;;;;;;;1.65;1.08;;;15.90;99.90;;;;;;5002591;28;20045;-67
2023/07/22 07:12:06;;;;;;;1.35;0.50;;;16.00;99.90;;;;;;5006911;28;20050;-67
2023/07/22 07:14:35;;;;;;;2.58;0.82;;;16.10;99.90;;;;;;5000162;28;20054;-67
2023/07/22 07:17:01;;;;;;;3.15;1.58;;;16.20;99.90;;;;;;5005295;28;20054;-67
2023/07/22 07:19:28;;;;;;;1.30;0.60;;;16.20;99.90;;;;;;5004417;28;20121;-67
2023/07/22 07:21:54;;;;;;;3.17;1.23;;;16.30;99.90;;;;;;5007202;28;20046;-67
2023/07/22 07:24:19;;;;;;;2.83;1.40;;;16.30;99.90;;;;;;4998669;28;20030;-67
2023/07/22 07:26:45;;;;;;;3.83;0.90;;;16.40;99.90;;;;;;5002314;28;20096;-66
2023/07/22 07:29:11;;;;;;;3.00;1.05;;;16.50;99.90;;;;;;5006680;28;20053;-67
2023/07/22 07:31:37;;;;;;;2.78;0.90;;;16.50;99.90;;;;;;5005481;28;20058;-66
2023/07/22 07:34:04;;;;;;;1.92;0.85;;;16.60;99.90;;;;;;5006035;28;20077;-67
2023/07/22 07:36:29;;;;;;;1.58;0.93;;;16.60;99.90;;;;;;5004795;28;20049;-64
2023/07/22 07:38:55;;;;;;;3.90;1.65;;;16.70;99.90;;;;;;5002703;28;20069;-65
2023/07/22 07:41:21;;;;;;;1.58;0.82;;;16.80;99.90;;;;;;4997671;28;20675;-65
2023/07/22 07:43:47;;;;;;;2.95;1.10;;;16.90;99.90;;;;;;4998944;28;20030;-66
2023/07/22 07:46:21;;;;;;;1.63;0.70;;;17.00;99.90;;;;;;5002135;28;20107;-66
2023/07/22 07:48:50;;;;;;;2.50;0.95;;;17.20;99.90;;;;;;5007142;28;20049;-66
2023/07/22 07:51:17;;;;;;;2.80;1.17;;;17.40;99.90;;;;;;4993592;28;20471;-66
2023/07/22 07:53:44;;;;;;;2.05;0.93;;;17.50;99.90;;;;;;5000398;28;20112;-67
2023/07/22 07:56:10;;;;;;;3.67;1.30;;;17.60;99.90;;;;;;5002613;28;20107;-67
2023/07/22 07:58:36;;;;;;;3.22;1.55;;;17.80;99.90;;;;;;5004180;28;20042;-67
2023/07/22 08:01:03;;;;;;;1.92;1.15;;;17.90;99.90;;;;;;4998543;28;20367;-66
2023/07/22 08:03:29;;;;;;;1.63;0.93;;;17.90;99.90;;;;;;5000790;28;20077;-66
2023/07/22 08:05:55;;;;;;;2.28;1.35;;;17.90;99.90;;;;;;5000380;28;20128;-67
2023/07/22 08:08:21;;;;;;;2.80;1.17;;;17.90;99.90;;;;;;5000675;28;20121;-66
2023/07/22 08:10:48;;;;;;;2.88;0.80;;;18.00;99.90;;;;;;4992614;28;20056;-66
2023/07/22 08:13:14;;;;;;;2.80;1.08;;;18.00;99.90;;;;;;5005693;28;20378;-67
2023/07/22 08:15:41;;;;;;;4.30;1.00;;;18.10;99.90;;;;;;5002979;28;20050;-66
2023/07/22 08:18:07;;;;;;;1.90;0.88;;;18.10;99.90;;;;;;4999424;28;20049;-67
2023/07/22 08:20:33;;;;;;;3.05;1.17;;;18.20;99.90;;;;;;4997440;28;20030;-67
2023/07/22 08:22:58;;;;;;;1.60;0.73;;;18.20;99.90;;;;;;5004457;28;20049;-67
2023/07/22 08:25:24;;;;;;;2.53;1.02;;;18.20;99.90;;;;;;5004082;28;20038;-66
2023/07/22 08:27:50;;;;;;;1.60;0.80;;;18.20;99.90;;;;;;5002197;28;20172;-66
2023/07/22 08:30:15;;;;;;;2.95;1.13;;;18.10;99.90;;;;;;5002452;28;20108;-66
2023/07/22 08:32:41;;;;;;;1.23;0.73;;;18.20;99.90;;;;;;4999475;28;20042;-66
2023/07/22 08:35:07;;;;;;;1.88;1.10;;;18.20;99.90;;;;;;5005769;28;20068;-66
2023/07/22 08:37:33;;;;;;;2.67;1.13;;;18.30;99.90;;;;;;5004470;28;20038;-66
2023/07/22 08:39:59;;;;;;;4.53;1.08;;;18.30;99.90;;;;;;5017113;28;20046;-66
2023/07/22 08:42:27;;;;;;;2.47;0.73;;;18.40;99.90;;;;;;5003470;28;20554;-66
2023/07/22 08:44:57;;;;;;;1.30;0.65;;;18.40;99.90;;;;;;4986402;28;20046;-66
2023/07/22 08:47:26;;;;;;;1.10;0.55;;;18.40;99.90;;;;;;4999821;28;20042;-66
2023/07/22 08:49:54;;;;;;;2.58;1.00;;;18.30;99.90;;;;;;4998368;28;20038;-66
2023/07/22 08:52:20;;;;;;;0.70;0.50;;;18.20;99.90;;;;;;5004974;28;20403;-66
2023/07/22 08:54:46;;;;;;;1.38;0.70;;;18.10;99.90;;;;;;5003532;28;20048;-66
2023/07/22 08:57:12;;;;;;;1.80;0.90;;;18.00;99.90;;;;;;4999261;28;20133;-66
2023/07/22 08:59:38;;;;;;;4.43;1.75;;;17.90;99.90;;;;;;4998379;28;20117;-66
2023/07/22 09:02:10;;;;;;;1.42;0.88;;;17.80;99.90;;;;;;5007968;28;20056;-66
2023/07/22 09:04:35;;;;;;;2.60;1.08;;;17.60;99.90;;;;;;5000012;28;20046;-66
2023/07/22 09:07:01;;;;;;;2.05;0.57;;;17.50;99.90;;;;;;5002850;28;20034;-66
2023/07/22 09:09:27;;;;;;;1.58;0.40;;;17.40;99.90;;;;;;4995538;28;20038;-66
2023/07/22 09:11:54;;;;;;;1.67;0.70;;;17.30;99.90;;;;;;5006191;28;20068;-66
2023/07/22 09:14:21;;;;;;;1.25;0.75;;;17.20;99.90;;;;;;5000805;28;20064;-66
2023/07/22 09:16:47;;;;;;;1.60;0.80;;;17.20;99.90;;;;;;5000374;28;20502;-66
2023/07/22 09:19:13;;;;;;;0.82;0.40;;;17.20;99.90;;;;;;5011689;28;20034;-66
2023/07/22 09:21:39;;;;;;;1.95;0.82;;;17.20;99.90;;;;;;5000057;28;20110;-66
2023/07/22 09:24:27;;;;;;;2.13;0.75;;;17.20;99.90;;;;;;4998199;28;20113;-66
2023/07/22 09:26:53;;;;;;;0.55;0.20;;;17.20;99.90;;;;;;5005582;28;20100;-66
2023/07/22 09:29:34;;;;;;;1.88;0.95;;;17.30;99.90;;;;;;5003132;28;20053;-66
2023/07/22 09:31:59;;;;;;;1.33;0.80;;;17.30;99.90;;;;;;5003128;28;20073;-66
2023/07/22 09:34:25;;;;;;;1.63;0.50;;;17.30;99.90;;;;;;5000824;28;20078;-65
2023/07/22 09:36:56;;;;;;;0.77;0.30;;;17.30;99.90;;;;;;4999128;28;20088;-67
2023/07/22 09:39:23;;;;;;;0.75;0.40;;;17.40;99.90;;;;;;4996767;28;20045;-67
2023/07/22 09:41:50;;;;;;;0.60;0.30;;;17.40;99.90;;;;;;5003495;28;20054;-67
2023/07/22 09:44:16;;;;;;;0.85;0.20;;;17.40;99.90;;;;;;5006210;28;20520;-67
2023/07/22 09:46:49;;;;;;;0.63;0.28;;;17.50;99.90;;;;;;5000272;28;20096;-66
2023/07/22 09:49:17;;;;;;;1.08;0.30;;;17.50;99.90;;;;;;5014596;28;20043;-66
2023/07/22 09:51:42;;;;;;;0.63;0.40;;;17.60;99.90;;;;;;5002355;28;20124;-67
2023/07/22 09:54:08;;;;;;;0.93;0.30;;;17.60;99.90;;;;;;4997172;28;20117;-67
2023/07/22 09:56:48;;;;;;;1.10;0.40;;;17.70;99.90;;;;;;4994897;28;20849;-67
2023/07/22 09:59:17;;;;;;;0.88;0.30;;;17.80;99.90;;;;;;4999094;28;20209;-66
2023/07/22 10:01:45;;;;;;;0.70;0.30;;;17.90;99.90;;;;;;5002785;28;20030;-66
2023/07/22 10:04:15;;;;;;;1.50;0.65;;;17.90;99.90;;;;;;4998342;28;20034;-67
2023/07/22 10:06:42;;;;;;;0.73;0.40;;;18.00;99.90;;;;;;4995276;28;20042;-67
2023/07/22 10:09:11;;;;;;;1.80;0.30;;;18.00;99.90;;;;;;5003828;28;20045;-67
2023/07/22 10:11:37;;;;;;;0.65;0.20;;;17.90;99.90;;;;;;4997589;28;20041;-66
2023/07/22 10:14:04;;;;;;;0.90;0.28;;;17.80;99.90;;;;;;4994127;28;20064;-66
2023/07/22 10:16:30;;;;;;;0.82;0.55;;;17.70;99.90;;;;;;5000828;28;20081;-66
2023/07/22 10:18:57;;;;;;;0.70;0.28;;;17.70;99.90;;;;;;5004589;28;20117;-67
2023/07/22 10:21:24;;;;;;;1.33;0.50;;;17.60;99.90;;;;;;5002084;28;20116;-67
2023/07/22 10:23:51;;;;;;;0.75;0.32;;;17.40;99.90;;;;;;4999000;28;20046;-67
2023/07/22 10:26:19;;;;;;;8.90;4.32;;;17.20;99.90;;;;;;4998022;28;20121;-67
2023/07/22 10:28:46;;;;;;;0.82;0.43;;;17.10;99.90;;;;;;5003129;28;20039;-67
2023/07/22 10:31:13;;;;;;;2.60;0.47;;;17.10;99.90;;;;;;4996323;28;20061;-67
2023/07/22 10:33:39;;;;;;;1.52;0.63;;;17.10;99.90;;;;;;5001426;28;20042;-67
2023/07/22 10:36:13;;;;;;;1.02;0.52;;;17.10;99.90;;;;;;4999172;28;20108;-67
2023/07/22 10:38:38;;;;;;;1.55;0.55;;;17.10;99.90;;;;;;5005954;28;20046;-67
2023/07/22 10:41:17;;;;;;;0.98;0.63;;;17.10;99.90;;;;;;4999981;28;20057;-67
2023/07/22 10:43:54;;;;;;;1.05;0.55;;;17.00;99.90;;;;;;5001883;28;20057;-67
2023/07/22 10:46:34;;;;;;;1.50;0.55;;;17.00;99.90;;;;;;5005906;28;20049;-67
2023/07/22 10:49:15;;;;;;;1.08;0.38;;;17.00;99.90;;;;;;5002370;28;20052;-67
2023/07/22 10:51:47;;;;;;;1.48;0.60;;;16.90;99.90;;;;;;5008785;28;20435;-67
2023/07/22 10:54:13;;;;;;;1.58;0.50;;;16.80;99.90;;;;;;5003495;28;20069;-67
2023/07/22 10:56:44;;;;;;;1.33;0.50;;;16.80;99.90;;;;;;5004692;28;20034;-68
2023/07/22 10:59:11;;;;;;;1.27;0.60;;;16.70;99.90;;;;;;5003843;28;20034;-67
2023/07/22 11:01:43;;;;;;;0.80;0.40;;;16.70;99.90;;;;;;5001443;28;20084;-68
2023/07/22 11:04:30;;;;;;;2.10;0.60;;;16.60;99.90;;;;;;5005103;28;20160;-68
2023/07/22 11:06:58;;;;;;;1.13;0.60;;;16.60;99.90;;;;;;5003995;28;20046;-70
2023/07/22 11:09:33;;;;;;;1.17;0.43;;;16.50;99.90;;;;;;5003702;28;20077;-70
2023/07/22 11:12:11;;;;;;;1.70;0.60;;;16.40;99.90;;;;;;4997665;28;20046;-70
2023/07/22 11:14:46;;;;;;;1.50;0.50;;;16.10;99.90;;;;;;4998968;28;20124;-72
2023/07/22 11:17:12;;;;;;;0.88;0.50;;;15.80;99.90;;;;;;5008318;28;20046;-68
2023/07/22 11:19:39;;;;;;;0.80;0.43;;;15.70;99.90;;;;;;4995560;28;20045;-66
2023/07/22 11:22:06;;;;;;;0.82;0.43;;;15.60;99.90;;;;;;4999934;28;20100;-66
2023/07/22 11:24:38;;;;;;;1.35;0.70;;;15.40;99.90;;;;;;5009061;28;20042;-65
2023/07/22 11:27:05;;;;;;;1.98;0.80;;;15.40;99.90;;;;;;5003369;28;20101;-67
2023/07/22 11:29:31;;;;;;;1.77;0.85;;;15.40;99.90;;;;;;5002918;28;20112;-67
2023/07/22 11:31:57;;;;;;;0.63;0.20;;;15.30;99.90;;;;;;4997653;28;20082;-66
2023/07/22 11:34:24;;;;;;;0.82;0.30;;;15.40;99.90;;;;;;5001919;28;20110;-66
2023/07/22 11:36:52;;;;;;;0.50;0.20;;;15.40;99.90;;;;;;5004019;28;20049;-66
2023/07/22 11:39:19;;;;;;;0.82;0.40;;;15.40;99.90;;;;;;5004181;28;20038;-65
2023/07/22 11:41:46;;;;;;;0.40;0.40;;;15.40;99.90;;;;;;4994695;28;20046;-66
2023/07/22 11:44:15;;;;;;;1.02;0.70;;;15.40;99.90;;;;;;4999657;28;20089;-66
2023/07/22 11:46:47;;;;;;;3.35;0.65;;;15.50;99.90;;;;;;5002646;28;20040;-66
2023/07/22 11:49:13;;;;;;;1.00;0.35;;;15.60;99.90;;;;;;4997744;28;20045;-66
2023/07/22 11:51:42;;;;;;;1.02;0.35;;;15.60;99.90;;;;;;4999885;28;20034;-66
2023/07/22 11:54:10;;;;;;;0.43;0.22;;;15.50;99.90;;;;;;5000171;28;20050;-66
2023/07/22 11:56:35;;;;;;;0.85;0.40;;;15.60;99.90;;;;;;5005311;28;20045;-66
2023/07/22 11:59:01;;;;;;;0.22;0.20;;;15.60;99.90;;;;;;4995178;28;20046;-66
2023/07/22 12:01:32;;;;;;;1.67;0.65;;;15.60;99.90;;;;;;5008646;28;20029;-66
2023/07/22 12:03:58;;;;;;;1.10;0.68;;;15.70;99.90;;;;;;5006055;28;20217;-66
2023/07/22 12:06:27;;;;;;;0.65;0.32;;;15.70;99.90;;;;;;5002908;28;20121;-66
2023/07/22 12:08:53;;;;;;;1.10;0.50;;;15.70;99.90;;;;;;4998074;28;20113;-66
2023/07/22 12:11:24;;;;;;;0.70;0.40;;;15.60;99.90;;;;;;5002773;28;20058;-66
2023/07/22 12:14:05;;;;;;;0.75;0.55;;;15.60;99.90;;;;;;5003557;28;20073;-67
2023/07/22 12:16:33;;;;;;;1.52;0.65;;;15.60;99.90;;;;;;5018365;28;20139;-67
2023/07/22 12:19:01;;;;;;;2.53;0.68;;;15.60;99.90;;;;;;5003764;28;20537;-67
2023/07/22 12:21:27;;;;;;;0.80;0.60;;;15.60;99.90;;;;;;5005016;28;20057;-67
2023/07/22 12:23:54;;;;;;;0.98;0.57;;;15.70;99.90;;;;;;5002244;28;20046;-67
2023/07/22 12:26:20;;;;;;;1.65;0.77;;;15.70;99.90;;;;;;4995539;28;20384;-67
2023/07/22 12:28:45;;;;;;;1.38;0.93;;;15.80;99.90;;;;;;4999468;28;20121;-67
2023/07/22 12:31:11;;;;;;;1.40;0.80;;;15.80;99.90;;;;;;5001981;28;20030;-67
2023/07/22 12:33:37;;;;;;;1.30;0.93;;;15.80;99.90;;;;;;5004245;28;20041;-67
2023/07/22 12:36:03;;;;;;;2.38;0.90;;;15.90;99.90;;;;;;4996426;28;20753;-67
2023/07/22 12:38:28;;;;;;;0.80;0.55;;;15.90;99.90;;;;;;5004463;28;20057;-67
2023/07/22 12:40:54;;;;;;;1.35;0.95;;;15.90;99.90;;;;;;5001613;28;20056;-67
2023/07/22 12:43:20;;;;;;;1.55;0.77;;;15.90;99.90;;;;;;5003354;28;20050;-67
2023/07/22 12:45:45;;;;;;;1.17;0.77;;;16.00;99.90;;;;;;4998709;28;20049;-67